Portada
METAR-TAF:

METAR-TAF

Aeropuertos :

Ioanina, Grecia

latitud: 39-41-47N, longitud: 20-49-21E, altitud: 475 m

Observación

El informe se hizo hace 47 minutos, a las 01:20 UTC
Viento 2 kt con dirección variable
Temperatura 21°C
Humedad 73%
Presión 1011 hPa

METAR: LGIO 230120Z AUTO VRB02KT //// // ////// 21/16 Q1011 RE//

Hora: 05:07 (02:07 UTC)

Pronóstico

El informe se hizo hace 3 horas y 7 minutos, a las 23:00 UTC
Pronóstico válido del 23 a las 00 UTC al 23 a las 09 UTC
Viento 3 kt con dirección variable
Visibilidad 10 km o más
Escasas nubes a una altura de 2500 ft
Nubes dispersas a una altura de 8000 ft

TAF: LGIO 222300Z 2300/2309 VRB03KT 9999 FEW025 SCT080

Observaciones y pronósticos meteorológicos de más de 4000 aeropuertos (mensajes METAR y TAF).

Los puntos amarillos y rojos representan las estaciones disponibles.

Ponga el ratón en el punto deseado para ver el nombre de la estación.

Haga clic para ver las observaciones y los pronósticos meteorológicos.

Para cambiar el mapa : haga clic en los botones verdes con una cruz de color negro para hacer un zoom, en el botón verde con un guión para alejar o en las flechas verdes para mapas adyacentes.


METAR-TAF: